createdAt,value
2018-09-03T00:00:30.546Z,18.40
2018-09-03T00:01:35.637Z,18.40
2018-09-03T00:02:38.728Z,18.40
2018-09-03T00:03:41.237Z,18.40
2018-09-03T00:04:43.658Z,18.40
2018-09-03T00:05:45.816Z,18.50
2018-09-03T00:06:47.952Z,18.50
2018-09-03T00:07:50.109Z,18.40
2018-09-03T00:08:52.233Z,18.40
2018-09-03T00:09:54.428Z,18.40
2018-09-03T00:10:56.909Z,18.40
2018-09-03T00:11:59.066Z,18.40
2018-09-03T00:13:01.181Z,18.40
2018-09-03T00:14:03.473Z,18.40
2018-09-03T00:15:06.009Z,18.50
2018-09-03T00:16:08.433Z,18.40
2018-09-03T00:17:10.594Z,18.40
2018-09-03T00:18:12.734Z,18.40
2018-09-03T00:19:14.869Z,18.40
2018-09-03T00:20:17.074Z,18.40
2018-09-03T00:21:19.526Z,18.40
2018-09-03T00:22:21.670Z,18.40
2018-09-03T00:23:23.797Z,18.40
2018-09-03T00:24:25.952Z,18.40
2018-09-03T00:25:28.115Z,18.40
2018-09-03T00:26:30.253Z,18.40
2018-09-03T00:27:32.672Z,18.40
2018-09-03T00:28:34.810Z,18.40
2018-09-03T00:29:37.205Z,18.40
2018-09-03T00:30:39.345Z,18.40
2018-09-03T00:31:47.211Z,18.40
2018-09-03T00:32:55.074Z,18.40
2018-09-03T00:34:02.847Z,18.40
2018-09-03T00:35:11.189Z,18.40
2018-09-03T00:36:19.022Z,18.40
2018-09-03T00:37:26.859Z,18.40
2018-09-03T00:38:34.930Z,18.40
2018-09-03T00:39:42.826Z,18.40
2018-09-03T00:40:51.651Z,18.40
2018-09-03T00:41:59.534Z,18.40
2018-09-03T00:43:07.660Z,18.40
2018-09-03T00:44:15.397Z,18.40
2018-09-03T00:45:23.293Z,18.40
2018-09-03T00:46:31.028Z,18.40
2018-09-03T00:47:33.174Z,18.30
2018-09-03T00:48:35.289Z,18.40
2018-09-03T00:49:37.941Z,18.30
2018-09-03T00:50:40.069Z,18.30
2018-09-03T00:51:42.205Z,18.30
2018-09-03T00:52:44.326Z,18.30
2018-09-03T00:53:46.746Z,18.30
2018-09-03T00:54:48.981Z,18.30
2018-09-03T00:55:51.109Z,18.30
2018-09-03T00:56:53.296Z,18.30
2018-09-03T00:57:55.457Z,18.30
2018-09-03T00:58:57.770Z,18.40
2018-09-03T00:59:59.967Z,18.40
2018-09-03T01:01:02.140Z,18.40
2018-09-03T01:02:04.571Z,18.40
2018-09-03T01:03:06.973Z,18.40
2018-09-03T01:04:09.099Z,18.40
2018-09-03T01:05:11.258Z,18.40
2018-09-03T01:06:13.622Z,18.40
2018-09-03T01:07:15.765Z,18.40
2018-09-03T01:08:17.966Z,18.40
2018-09-03T01:09:20.101Z,18.30
2018-09-03T01:10:22.225Z,18.30
2018-09-03T01:11:25.307Z,18.30
2018-09-03T01:12:27.417Z,18.30
2018-09-03T01:13:29.776Z,18.30
2018-09-03T01:14:31.907Z,18.30
2018-09-03T01:15:34.042Z,18.30
2018-09-03T01:16:36.163Z,18.30
2018-09-03T01:17:38.457Z,18.30
2018-09-03T01:18:43.922Z,18.30
2018-09-03T01:19:46.353Z,18.30
2018-09-03T01:20:48.801Z,18.20
2018-09-03T01:21:51.265Z,18.20
2018-09-03T01:22:53.421Z,18.20
2018-09-03T01:23:55.597Z,18.20
2018-09-03T01:24:57.714Z,18.20
2018-09-03T01:25:59.841Z,18.30
2018-09-03T01:27:01.982Z,18.20
2018-09-03T01:28:04.130Z,18.20
2018-09-03T01:29:06.263Z,18.20
2018-09-03T01:30:08.412Z,18.20
2018-09-03T01:31:10.543Z,18.10
2018-09-03T01:32:12.652Z,18.10
2018-09-03T01:33:14.756Z,18.10
2018-09-03T01:34:16.936Z,18.10
2018-09-03T01:35:19.142Z,18.10
2018-09-03T01:36:21.764Z,18.10
2018-09-03T01:37:23.916Z,18.10
2018-09-03T01:38:26.088Z,18.10
2018-09-03T01:39:28.235Z,18.10
2018-09-03T01:40:30.367Z,18.10
2018-09-03T01:41:32.503Z,18.20
2018-09-03T01:42:34.662Z,18.20
2018-09-03T01:43:37.189Z,18.20
2018-09-03T01:44:39.334Z,18.20
2018-09-03T01:45:41.494Z,18.20
2018-09-03T01:46:43.650Z,18.20
2018-09-03T01:47:45.807Z,18.20
2018-09-03T01:48:47.966Z,18.20
2018-09-03T01:49:50.114Z,18.20
2018-09-03T01:50:52.269Z,18.10
2018-09-03T01:51:54.418Z,18.30
2018-09-03T01:52:56.860Z,18.30
2018-09-03T01:53:59.018Z,18.30
2018-09-03T01:55:01.376Z,18.30
2018-09-03T01:56:03.633Z,18.30
2018-09-03T01:57:05.768Z,18.30
2018-09-03T01:58:07.885Z,18.30
2018-09-03T01:59:10.020Z,18.30
2018-09-03T02:00:12.150Z,18.30
2018-09-03T02:01:14.253Z,18.30
2018-09-03T02:02:16.362Z,18.30
2018-09-03T02:03:18.713Z,18.30
2018-09-03T02:04:20.909Z,18.30
2018-09-03T02:05:23.046Z,18.30
2018-09-03T02:06:25.167Z,18.30
2018-09-03T02:07:27.327Z,18.30
2018-09-03T02:08:29.661Z,18.30
2018-09-03T02:09:31.813Z,18.30
2018-09-03T02:10:33.945Z,18.30
2018-09-03T02:11:36.229Z,18.30
2018-09-03T02:12:38.395Z,18.20
2018-09-03T02:13:40.591Z,18.20
2018-09-03T02:14:43.516Z,18.20
2018-09-03T02:15:45.835Z,18.20
2018-09-03T02:16:47.977Z,18.20
2018-09-03T02:17:50.089Z,18.20
2018-09-03T02:18:52.194Z,18.20
2018-09-03T02:19:54.455Z,18.20
2018-09-03T02:20:56.666Z,18.20
2018-09-03T02:21:58.799Z,18.20
2018-09-03T02:23:01.274Z,18.20
2018-09-03T02:24:03.538Z,18.30
2018-09-03T02:25:05.809Z,18.20
2018-09-03T02:26:07.937Z,18.20
2018-09-03T02:27:10.065Z,18.30
2018-09-03T02:28:12.401Z,18.20
2018-09-03T02:29:14.509Z,18.20
2018-09-03T02:30:16.622Z,18.20
2018-09-03T02:31:18.794Z,18.20
2018-09-03T02:32:20.925Z,18.20
2018-09-03T02:33:23.044Z,18.20
2018-09-03T02:34:25.240Z,18.20
2018-09-03T02:35:27.379Z,18.20
2018-09-03T02:36:29.514Z,18.20
2018-09-03T02:37:31.678Z,18.20
2018-09-03T02:38:33.824Z,18.20
2018-09-03T02:39:35.962Z,18.20
2018-09-03T02:40:38.526Z,18.20
2018-09-03T02:41:40.682Z,18.20
2018-09-03T02:42:43.124Z,18.20
2018-09-03T02:43:45.247Z,18.20
2018-09-03T02:44:47.408Z,18.20
2018-09-03T02:45:49.537Z,18.20
2018-09-03T02:46:51.678Z,18.20
2018-09-03T02:47:53.857Z,18.30
2018-09-03T02:48:56.782Z,18.20
2018-09-03T02:49:58.972Z,18.20
2018-09-03T02:51:01.271Z,18.20
2018-09-03T02:52:03.913Z,18.20
2018-09-03T02:53:06.138Z,18.20
2018-09-03T02:54:08.273Z,18.20
2018-09-03T02:55:10.437Z,18.20
2018-09-03T02:56:12.574Z,18.30
2018-09-03T02:57:14.745Z,18.30
2018-09-03T02:58:16.898Z,18.20
2018-09-03T02:59:19.183Z,18.20
2018-09-03T03:00:24.586Z,18.20
2018-09-03T03:01:26.732Z,18.30
2018-09-03T03:02:29.137Z,18.20
2018-09-03T03:03:31.262Z,18.20
2018-09-03T03:04:33.461Z,18.30
2018-09-03T03:05:35.590Z,18.20
2018-09-03T03:06:37.773Z,18.20
2018-09-03T03:07:39.901Z,18.20
2018-09-03T03:08:42.853Z,18.20
2018-09-03T03:09:45.034Z,18.20
2018-09-03T03:10:47.476Z,18.20
2018-09-03T03:11:49.999Z,18.20
2018-09-03T03:12:52.104Z,18.20
2018-09-03T03:13:54.259Z,18.20
2018-09-03T03:14:58.044Z,18.10
2018-09-03T03:16:00.174Z,18.20
2018-09-03T03:17:02.379Z,18.20
2018-09-03T03:18:04.637Z,18.20
2018-09-03T03:19:06.899Z,18.20
2018-09-03T03:20:09.080Z,18.20
2018-09-03T03:21:11.250Z,18.20
2018-09-03T03:22:13.404Z,18.20
2018-09-03T03:23:15.526Z,18.20
2018-09-03T03:24:17.717Z,18.20
2018-09-03T03:25:19.886Z,18.20
2018-09-03T03:26:22.058Z,18.20
2018-09-03T03:27:24.186Z,18.20
2018-09-03T03:28:26.316Z,18.20
2018-09-03T03:29:28.446Z,18.20
2018-09-03T03:30:30.614Z,18.30
2018-09-03T03:31:32.861Z,18.20
2018-09-03T03:32:35.026Z,18.20
2018-09-03T03:33:37.210Z,18.20
2018-09-03T03:34:39.490Z,18.20
2018-09-03T03:35:42.349Z,18.20
2018-09-03T03:36:44.457Z,18.20
2018-09-03T03:37:47.546Z,18.20
2018-09-03T03:38:49.763Z,18.20
2018-09-03T03:39:51.868Z,18.20
2018-09-03T03:40:53.989Z,18.20
2018-09-03T03:41:56.431Z,18.20
2018-09-03T03:42:58.697Z,18.30
2018-09-03T03:44:00.917Z,18.20
2018-09-03T03:45:03.089Z,18.20
2018-09-03T03:46:05.257Z,18.30
2018-09-03T03:47:07.393Z,18.30
2018-09-03T03:48:09.510Z,18.30
2018-09-03T03:49:11.658Z,18.30
2018-09-03T03:50:14.052Z,18.30
2018-09-03T03:51:16.626Z,18.30
2018-09-03T03:52:18.857Z,18.30
2018-09-03T03:53:21.257Z,18.30
2018-09-03T03:54:23.409Z,18.30
2018-09-03T03:55:25.561Z,18.30
2018-09-03T03:56:27.713Z,18.30
2018-09-03T03:57:29.838Z,18.30
2018-09-03T03:58:31.982Z,18.30
2018-09-03T03:59:34.106Z,18.30
2018-09-03T04:00:36.654Z,18.30
2018-09-03T04:01:38.964Z,18.30
2018-09-03T04:02:41.065Z,18.30
2018-09-03T04:03:43.194Z,18.30
2018-09-03T04:04:45.314Z,18.40
2018-09-03T04:05:47.467Z,18.30
2018-09-03T04:06:49.637Z,18.30
2018-09-03T04:07:51.782Z,18.30
2018-09-03T04:08:53.920Z,18.30
2018-09-03T04:09:56.257Z,18.30
2018-09-03T04:10:58.424Z,18.30
2018-09-03T04:12:00.569Z,18.30
2018-09-03T04:13:03.719Z,18.30
2018-09-03T04:14:05.836Z,18.30
2018-09-03T04:15:07.946Z,18.30
2018-09-03T04:16:10.330Z,18.30
2018-09-03T04:17:12.486Z,18.20
2018-09-03T04:18:14.622Z,18.20
2018-09-03T04:19:16.815Z,18.30
2018-09-03T04:20:19.174Z,18.20
2018-09-03T04:21:21.325Z,18.30
2018-09-03T04:22:23.562Z,18.20
2018-09-03T04:23:25.811Z,18.20
2018-09-03T04:24:27.850Z,18.20
2018-09-03T04:25:30.006Z,18.20
2018-09-03T04:26:32.166Z,18.20
2018-09-03T04:27:34.309Z,18.30
2018-09-03T04:28:36.507Z,18.20
2018-09-03T04:29:38.697Z,18.20
2018-09-03T04:30:40.873Z,18.20
2018-09-03T04:31:42.994Z,18.30
2018-09-03T04:32:45.137Z,18.30
2018-09-03T04:33:47.310Z,18.30
2018-09-03T04:34:49.717Z,18.40
2018-09-03T04:35:51.881Z,18.30
2018-09-03T04:36:54.038Z,18.30
2018-09-03T04:37:56.434Z,18.30
2018-09-03T04:38:58.712Z,18.30
2018-09-03T04:41:10.386Z,18.40
2018-09-03T04:42:12.605Z,18.40
2018-09-03T04:43:14.747Z,18.30
2018-09-03T04:44:16.982Z,18.30
2018-09-03T04:45:19.243Z,18.30
2018-09-03T04:46:21.397Z,18.30
2018-09-03T04:47:23.521Z,18.30
2018-09-03T04:48:25.655Z,18.30
2018-09-03T04:49:27.788Z,18.30
2018-09-03T04:50:29.935Z,18.30
2018-09-03T04:51:32.315Z,18.20
2018-09-03T04:52:34.501Z,18.20
2018-09-03T04:53:36.661Z,18.30
2018-09-03T04:54:38.958Z,18.20
2018-09-03T04:55:41.290Z,18.20
2018-09-03T04:56:43.709Z,18.30
2018-09-03T04:57:45.866Z,18.20
2018-09-03T04:58:48.044Z,18.20
2018-09-03T04:59:50.196Z,18.30
2018-09-03T05:00:52.345Z,18.30
2018-09-03T05:01:54.519Z,18.30
2018-09-03T05:02:56.633Z,18.30
2018-09-03T05:03:58.950Z,18.30
2018-09-03T05:05:01.174Z,18.30
2018-09-03T05:07:12.652Z,18.30
2018-09-03T05:08:15.073Z,18.30
2018-09-03T05:09:17.233Z,18.30
2018-09-03T05:10:19.622Z,18.30
2018-09-03T05:11:21.779Z,18.40
2018-09-03T05:12:23.942Z,18.40
2018-09-03T05:13:26.066Z,18.40
2018-09-03T05:14:28.210Z,18.40
2018-09-03T05:15:30.429Z,18.40
2018-09-03T05:16:32.584Z,18.40
2018-09-03T05:17:34.709Z,18.40
2018-09-03T05:18:36.842Z,18.40
2018-09-03T05:19:38.969Z,18.40
2018-09-03T05:20:41.219Z,18.40
2018-09-03T05:21:43.353Z,18.40
2018-09-03T05:22:45.711Z,18.40
2018-09-03T05:23:47.938Z,18.40
2018-09-03T05:24:50.358Z,18.40
2018-09-03T05:25:52.510Z,18.60
2018-09-03T05:26:54.713Z,18.40
2018-09-03T05:27:57.114Z,18.40
2018-09-03T05:28:59.273Z,18.50
2018-09-03T05:30:01.770Z,18.50
2018-09-03T05:31:04.053Z,18.60
2018-09-03T05:32:06.253Z,18.50
2018-09-03T05:33:08.438Z,18.50
2018-09-03T05:34:10.774Z,18.50
2018-09-03T05:35:12.959Z,18.50
2018-09-03T05:36:15.229Z,18.50
2018-09-03T05:37:17.537Z,18.50
2018-09-03T05:38:19.955Z,18.50
2018-09-03T05:39:22.096Z,18.50
2018-09-03T05:40:24.250Z,18.50
2018-09-03T05:41:26.488Z,18.50
2018-09-03T05:42:28.643Z,18.50
2018-09-03T05:43:30.954Z,18.50
2018-09-03T05:44:33.094Z,18.50
2018-09-03T05:45:35.241Z,18.50
2018-09-03T05:46:37.973Z,18.50
2018-09-03T05:47:40.140Z,18.50
2018-09-03T05:48:42.318Z,18.50
2018-09-03T05:49:44.467Z,18.50
2018-09-03T05:50:46.684Z,18.50
2018-09-03T05:51:48.904Z,18.50
2018-09-03T05:52:51.063Z,18.50
2018-09-03T05:53:53.242Z,18.50
2018-09-03T05:54:55.696Z,18.60
2018-09-03T05:55:57.941Z,18.60
2018-09-03T05:57:00.105Z,18.60
2018-09-03T05:58:02.286Z,18.60
2018-09-03T05:59:04.777Z,18.60
2018-09-03T06:00:07.095Z,18.60
2018-09-03T06:01:09.273Z,18.60
2018-09-03T06:02:11.904Z,18.60
2018-09-03T06:03:14.061Z,18.60
2018-09-03T06:04:16.223Z,18.60
2018-09-03T06:05:18.450Z,18.60
2018-09-03T06:06:20.634Z,18.60
2018-09-03T06:07:23.017Z,18.60
2018-09-03T06:08:25.205Z,18.60
2018-09-03T06:09:27.373Z,18.60
2018-09-03T06:10:29.590Z,18.40
2018-09-03T06:11:32.025Z,18.60
2018-09-03T06:12:34.235Z,18.60
2018-09-03T06:13:36.459Z,18.50
2018-09-03T06:14:38.633Z,18.60
2018-09-03T06:15:40.842Z,18.50
2018-09-03T06:16:42.991Z,18.60
2018-09-03T06:17:45.197Z,18.60
2018-09-03T06:18:47.373Z,18.60
2018-09-03T06:19:49.533Z,18.60
2018-09-03T06:20:51.725Z,18.60
2018-09-03T06:21:53.936Z,18.60
2018-09-03T06:22:56.078Z,18.70
2018-09-03T06:23:58.220Z,18.70
2018-09-03T06:25:00.398Z,18.70
2018-09-03T06:26:02.570Z,18.70
2018-09-03T06:27:05.589Z,18.70
2018-09-03T06:28:07.830Z,18.70
2018-09-03T06:29:10.024Z,18.70
2018-09-03T06:30:12.489Z,18.70
2018-09-03T06:31:14.750Z,18.70
2018-09-03T06:32:16.891Z,18.70
2018-09-03T06:33:19.062Z,18.70
2018-09-03T06:34:21.199Z,18.70
2018-09-03T06:35:23.357Z,18.70
2018-09-03T06:36:25.966Z,18.80
2018-09-03T06:37:28.096Z,18.80
2018-09-03T06:38:30.524Z,18.80
2018-09-03T06:39:32.672Z,18.80
2018-09-03T06:40:34.833Z,18.80
2018-09-03T06:41:37.182Z,18.70
2018-09-03T06:42:39.352Z,18.80
2018-09-03T06:43:42.053Z,18.70
2018-09-03T06:44:44.485Z,18.70
2018-09-03T06:45:46.928Z,18.70
2018-09-03T06:46:50.331Z,18.80
2018-09-03T06:47:52.752Z,18.80
2018-09-03T06:48:54.916Z,18.80
2018-09-03T06:49:57.114Z,18.80
2018-09-03T06:50:59.281Z,18.90
2018-09-03T06:52:01.717Z,18.90
2018-09-03T06:53:03.921Z,18.90
2018-09-03T06:54:06.097Z,19.00
2018-09-03T06:55:08.280Z,19.00
2018-09-03T06:56:10.605Z,19.00
2018-09-03T06:57:12.929Z,19.00
2018-09-03T06:58:15.109Z,19.00
2018-09-03T06:59:17.437Z,19.00
2018-09-03T07:00:19.658Z,19.10
2018-09-03T07:01:21.865Z,19.00
2018-09-03T07:02:24.066Z,19.00
2018-09-03T07:03:26.246Z,19.10
2018-09-03T07:04:28.365Z,19.10
2018-09-03T07:05:31.495Z,19.10
2018-09-03T07:06:33.882Z,19.10
2018-09-03T07:07:36.065Z,19.10
2018-09-03T07:08:38.876Z,19.10
2018-09-03T07:09:41.048Z,19.10
2018-09-03T07:10:43.424Z,19.10
2018-09-03T07:11:45.578Z,19.10
2018-09-03T07:12:47.823Z,19.10
2018-09-03T07:13:50.029Z,19.10
2018-09-03T07:14:52.169Z,19.10
2018-09-03T07:15:54.302Z,19.10
2018-09-03T07:16:56.760Z,19.10
2018-09-03T07:17:59.021Z,19.20
2018-09-03T07:19:01.308Z,19.10
2018-09-03T07:20:03.932Z,19.10
2018-09-03T07:21:06.096Z,19.20
2018-09-03T07:22:08.257Z,19.10
2018-09-03T07:23:10.841Z,19.10
2018-09-03T07:24:12.977Z,19.10
2018-09-03T07:25:15.334Z,19.20
2018-09-03T07:26:17.596Z,19.20
2018-09-03T07:27:19.937Z,19.20
2018-09-03T07:28:22.071Z,19.20
2018-09-03T07:29:24.459Z,19.20
2018-09-03T07:30:26.861Z,19.20
2018-09-03T07:31:29.023Z,19.20
2018-09-03T07:32:31.161Z,19.20
2018-09-03T07:33:33.281Z,19.20
2018-09-03T07:34:37.673Z,19.20
2018-09-03T07:35:39.831Z,19.20
2018-09-03T07:36:41.986Z,19.20
2018-09-03T07:37:44.106Z,19.20
2018-09-03T07:38:46.249Z,19.20
2018-09-03T07:39:48.550Z,19.20
2018-09-03T07:40:50.664Z,19.20
2018-09-03T07:41:52.789Z,19.10
2018-09-03T07:42:54.995Z,19.00
2018-09-03T07:43:57.197Z,19.10
2018-09-03T07:44:59.349Z,19.00
2018-09-03T07:46:01.812Z,19.00
2018-09-03T07:47:04.151Z,18.90
2018-09-03T07:48:06.292Z,18.90
2018-09-03T07:49:08.479Z,19.00
2018-09-03T07:50:10.611Z,19.00
2018-09-03T07:51:12.799Z,18.90
2018-09-03T07:52:14.986Z,19.00
2018-09-03T07:53:17.160Z,19.00
2018-09-03T07:54:19.766Z,19.00
2018-09-03T07:55:21.945Z,19.00
2018-09-03T07:56:24.115Z,19.00
2018-09-03T07:57:26.635Z,19.00
2018-09-03T07:58:28.787Z,19.10
2018-09-03T07:59:30.927Z,19.10
2018-09-03T08:00:33.084Z,19.10
2018-09-03T08:01:35.272Z,19.00
2018-09-03T08:02:37.440Z,19.10
2018-09-03T08:03:39.597Z,19.10
2018-09-03T08:04:42.071Z,19.10
2018-09-03T08:05:44.200Z,19.10
2018-09-03T08:06:46.345Z,19.20
2018-09-03T08:07:48.546Z,19.20
2018-09-03T08:08:50.688Z,19.20
2018-09-03T08:09:52.820Z,19.20
2018-09-03T08:10:55.092Z,19.30
2018-09-03T08:11:57.289Z,19.30
2018-09-03T08:12:59.582Z,19.30
2018-09-03T08:14:01.712Z,19.30
2018-09-03T08:15:04.197Z,19.30
2018-09-03T08:16:06.392Z,19.30
2018-09-03T08:17:08.547Z,19.40
2018-09-03T08:18:10.953Z,19.40
2018-09-03T08:19:13.217Z,19.30
2018-09-03T08:20:15.406Z,19.40
2018-09-03T08:21:17.597Z,19.40
2018-09-03T08:22:19.981Z,19.30
2018-09-03T08:23:22.549Z,19.30
2018-09-03T08:24:24.701Z,19.30
2018-09-03T08:25:26.875Z,19.20
2018-09-03T08:26:29.038Z,19.20
2018-09-03T08:27:31.210Z,19.20
2018-09-03T08:28:33.365Z,19.10
2018-09-03T08:29:35.521Z,19.10
2018-09-03T08:30:37.691Z,19.10
2018-09-03T08:31:39.941Z,19.00
2018-09-03T08:32:42.129Z,19.00
2018-09-03T08:33:44.337Z,19.00
2018-09-03T08:34:46.565Z,19.00
2018-09-03T08:35:48.765Z,18.90
2018-09-03T08:36:50.962Z,19.00
2018-09-03T08:37:53.303Z,19.00
2018-09-03T08:38:55.826Z,19.00
2018-09-03T08:39:57.961Z,19.00
2018-09-03T08:41:00.439Z,19.00
2018-09-03T08:42:02.598Z,19.00
2018-09-03T08:43:05.114Z,19.00
2018-09-03T08:44:07.250Z,19.00
2018-09-03T08:45:09.422Z,19.00
2018-09-03T08:46:11.809Z,18.90
2018-09-03T08:47:14.085Z,18.90
2018-09-03T08:48:16.243Z,18.90
2018-09-03T08:49:18.726Z,18.90
2018-09-03T08:50:20.952Z,18.80
2018-09-03T08:51:23.156Z,18.80
2018-09-03T08:52:25.334Z,18.80
2018-09-03T08:53:27.521Z,18.90
2018-09-03T08:54:29.774Z,18.80
2018-09-03T08:55:32.238Z,18.80
2018-09-03T08:56:34.383Z,18.90
2018-09-03T08:57:36.553Z,18.90
2018-09-03T08:58:39.155Z,18.90
2018-09-03T08:59:41.338Z,18.90
2018-09-03T09:00:43.510Z,18.90
2018-09-03T09:01:45.702Z,18.90
2018-09-03T09:02:47.825Z,18.90
2018-09-03T09:03:49.966Z,18.90
2018-09-03T09:04:52.392Z,18.80
2018-09-03T09:05:54.549Z,18.80
2018-09-03T09:06:57.010Z,18.80
2018-09-03T09:07:59.218Z,18.70
2018-09-03T09:09:01.661Z,18.70
2018-09-03T09:10:03.891Z,18.70
2018-09-03T09:11:07.357Z,18.70
2018-09-03T09:12:09.599Z,18.60
2018-09-03T09:13:12.000Z,18.60
2018-09-03T09:14:14.361Z,18.60
2018-09-03T09:15:16.550Z,18.60
2018-09-03T09:16:18.734Z,18.60
2018-09-03T09:17:21.069Z,18.70
2018-09-03T09:18:23.221Z,18.60
2018-09-03T09:19:25.476Z,18.60
2018-09-03T09:20:27.622Z,18.70
2018-09-03T09:21:29.830Z,18.60
2018-09-03T09:22:31.981Z,18.70
2018-09-03T09:23:34.132Z,18.70
2018-09-03T09:24:36.574Z,18.70
2018-09-03T09:25:38.731Z,18.70
2018-09-03T09:26:40.876Z,18.70
2018-09-03T09:27:43.023Z,18.70
2018-09-03T09:28:45.157Z,18.70
2018-09-03T09:29:47.329Z,18.70
2018-09-03T09:30:49.517Z,18.80
2018-09-03T09:31:51.665Z,18.80
2018-09-03T09:32:53.827Z,18.80
2018-09-03T09:33:55.989Z,18.90
2018-09-03T09:34:58.124Z,18.90
2018-09-03T09:36:00.597Z,18.90
2018-09-03T09:37:03.349Z,19.00
2018-09-03T09:38:06.345Z,19.00
2018-09-03T09:39:09.212Z,19.00
2018-09-03T09:40:11.638Z,19.00
2018-09-03T09:41:14.121Z,19.00
2018-09-03T09:42:16.275Z,19.00
2018-09-03T09:43:18.451Z,19.00
2018-09-03T09:44:20.688Z,19.00
2018-09-03T09:45:22.901Z,18.90
2018-09-03T09:46:25.065Z,18.80
2018-09-03T09:47:27.213Z,18.80
2018-09-03T09:48:29.488Z,18.80
2018-09-03T09:49:31.677Z,18.80
2018-09-03T09:50:33.845Z,18.80
2018-09-03T09:51:36.002Z,18.70
2018-09-03T09:52:38.164Z,18.80
2018-09-03T09:53:40.402Z,18.80
2018-09-03T09:54:42.620Z,18.80
2018-09-03T09:55:44.788Z,18.80
2018-09-03T09:56:46.947Z,18.80
2018-09-03T09:57:49.101Z,18.80
2018-09-03T09:58:51.514Z,18.90
2018-09-03T09:59:53.740Z,18.90
2018-09-03T10:01:01.770Z,18.90
2018-09-03T10:02:03.950Z,18.90
2018-09-03T10:03:06.089Z,18.90
2018-09-03T10:04:08.231Z,18.90
2018-09-03T10:05:10.368Z,18.90
2018-09-03T10:06:12.536Z,18.90
2018-09-03T10:07:14.680Z,18.90
2018-09-03T10:08:16.820Z,18.90
2018-09-03T10:09:18.938Z,18.80
2018-09-03T10:10:21.086Z,18.90
2018-09-03T10:11:23.257Z,18.90
2018-09-03T10:12:30.799Z,18.90
2018-09-03T10:13:32.966Z,18.90
2018-09-03T10:14:35.318Z,19.00
2018-09-03T10:15:37.452Z,19.00
2018-09-03T10:16:39.627Z,19.00
2018-09-03T10:17:41.937Z,19.10
2018-09-03T10:18:44.087Z,19.00
2018-09-03T10:19:46.220Z,19.10
2018-09-03T10:20:48.403Z,19.10
2018-09-03T10:21:50.541Z,19.10
2018-09-03T10:22:52.672Z,19.20
2018-09-03T10:23:54.807Z,19.10
2018-09-03T10:24:56.976Z,19.20
2018-09-03T10:25:59.171Z,19.20
2018-09-03T10:27:01.320Z,19.20
2018-09-03T10:28:03.549Z,19.20
2018-09-03T10:29:05.981Z,19.20
2018-09-03T10:30:08.110Z,19.20
2018-09-03T10:31:10.478Z,19.20
2018-09-03T10:32:12.667Z,19.10
2018-09-03T10:33:14.803Z,19.10
2018-09-03T10:34:16.918Z,19.10
2018-09-03T10:35:19.037Z,19.20
2018-09-03T10:36:21.317Z,19.10
2018-09-03T10:37:23.506Z,19.20
2018-09-03T10:38:25.648Z,19.20
2018-09-03T10:39:27.753Z,19.20
2018-09-03T10:40:29.877Z,19.20
2018-09-03T10:41:32.015Z,19.30
2018-09-03T10:42:34.395Z,19.20
2018-09-03T10:43:36.589Z,19.20
2018-09-03T10:44:38.716Z,19.30
2018-09-03T10:45:42.726Z,19.30
2018-09-03T10:46:46.207Z,19.30
2018-09-03T10:47:48.349Z,19.30
2018-09-03T10:48:50.569Z,19.30
2018-09-03T10:49:52.713Z,19.30
2018-09-03T10:50:54.862Z,19.30
2018-09-03T10:51:57.483Z,19.30
2018-09-03T10:52:59.668Z,19.40
2018-09-03T10:54:02.207Z,19.50
2018-09-03T10:55:04.861Z,19.40
2018-09-03T10:56:07.409Z,19.50
2018-09-03T10:57:09.560Z,19.60
2018-09-03T10:58:11.941Z,19.60
2018-09-03T10:59:14.180Z,19.70
2018-09-03T11:00:16.363Z,19.70
2018-09-03T11:01:18.989Z,19.70
2018-09-03T11:02:21.151Z,19.70
2018-09-03T11:03:23.360Z,19.70
2018-09-03T11:04:25.521Z,19.70
2018-09-03T11:05:27.718Z,19.70
2018-09-03T11:06:30.181Z,19.80
2018-09-03T11:07:32.301Z,19.80
2018-09-03T11:08:34.473Z,19.90
2018-09-03T11:09:36.921Z,19.90
2018-09-03T11:10:39.041Z,20.00
2018-09-03T11:11:41.452Z,20.10
2018-09-03T11:12:43.695Z,20.10
2018-09-03T11:13:45.862Z,20.20
2018-09-03T11:14:48.072Z,20.20
2018-09-03T11:15:50.202Z,20.30
2018-09-03T11:16:52.330Z,20.40
2018-09-03T11:17:54.518Z,20.50
2018-09-03T11:18:56.757Z,20.60
2018-09-03T11:20:01.177Z,20.60
2018-09-03T11:21:03.401Z,20.70
2018-09-03T11:22:05.586Z,20.70
2018-09-03T11:23:07.731Z,20.80
2018-09-03T11:24:09.859Z,20.80
2018-09-03T11:25:12.005Z,20.80
2018-09-03T11:26:14.156Z,20.80
2018-09-03T11:27:16.291Z,20.80
2018-09-03T11:28:18.459Z,20.70
2018-09-03T11:29:20.589Z,20.80
2018-09-03T11:30:23.519Z,20.80
2018-09-03T11:31:25.948Z,20.80
2018-09-03T11:32:28.140Z,20.80
2018-09-03T11:33:30.311Z,20.70
2018-09-03T11:34:32.466Z,20.60
2018-09-03T11:35:34.586Z,20.50
2018-09-03T11:36:37.052Z,20.50
2018-09-03T11:37:39.356Z,20.40
2018-09-03T11:38:41.482Z,20.40
2018-09-03T11:39:43.959Z,20.40
2018-09-03T11:40:46.121Z,20.40
2018-09-03T11:41:48.231Z,20.40
2018-09-03T11:42:50.376Z,20.40
2018-09-03T11:43:52.525Z,20.40
2018-09-03T11:44:54.647Z,20.40
2018-09-03T11:45:56.793Z,20.40
2018-09-03T11:46:58.950Z,20.40
2018-09-03T11:48:01.093Z,20.40
2018-09-03T11:49:03.718Z,20.50
2018-09-03T11:50:05.981Z,20.50
2018-09-03T11:51:08.175Z,20.60
2018-09-03T11:52:10.373Z,20.60
2018-09-03T11:53:12.509Z,20.60
2018-09-03T11:54:14.662Z,20.60
2018-09-03T11:55:16.850Z,20.70
2018-09-03T11:56:18.953Z,20.70
2018-09-03T11:57:21.106Z,20.80
2018-09-03T11:58:23.595Z,20.80
2018-09-03T11:59:25.736Z,20.90
2018-09-03T12:00:29.572Z,20.90
2018-09-03T12:01:31.941Z,20.90
2018-09-03T12:02:34.091Z,20.90
2018-09-03T12:03:36.230Z,20.90
2018-09-03T12:04:38.365Z,20.90
2018-09-03T12:05:40.753Z,20.90
2018-09-03T12:06:43.357Z,20.90
2018-09-03T12:07:45.473Z,20.90
2018-09-03T12:08:47.663Z,20.90
2018-09-03T12:09:50.109Z,21.00
2018-09-03T12:10:52.255Z,21.00
2018-09-03T12:11:54.673Z,21.00
2018-09-03T12:12:56.807Z,21.10
2018-09-03T12:14:00.406Z,21.10
2018-09-03T12:15:07.069Z,21.10
2018-09-03T12:16:11.166Z,21.10
2018-09-03T12:17:13.404Z,21.10
2018-09-03T12:18:15.585Z,21.20
2018-09-03T12:19:17.790Z,21.20
2018-09-03T12:20:20.011Z,21.30
2018-09-03T12:21:22.193Z,21.20
2018-09-03T12:22:24.359Z,21.20
2018-09-03T12:23:26.592Z,21.20
2018-09-03T12:24:28.784Z,21.30
2018-09-03T12:25:30.929Z,21.30
2018-09-03T12:26:33.119Z,21.40
2018-09-03T12:27:35.262Z,21.40
2018-09-03T12:28:37.436Z,21.40
2018-09-03T12:29:39.592Z,21.50
2018-09-03T12:30:41.980Z,21.50
2018-09-03T12:31:44.154Z,21.50
2018-09-03T12:32:46.996Z,21.50
2018-09-03T12:33:49.211Z,21.60
2018-09-03T12:34:51.380Z,21.60
2018-09-03T12:35:53.505Z,21.60
2018-09-03T12:36:55.693Z,21.60
2018-09-03T12:38:04.476Z,21.60
2018-09-03T12:39:08.627Z,21.60
2018-09-03T12:40:10.758Z,21.60
2018-09-03T12:41:13.002Z,21.60
2018-09-03T12:42:15.126Z,21.60
2018-09-03T12:43:17.258Z,21.60
2018-09-03T12:44:19.375Z,21.60
2018-09-03T12:46:26.051Z,21.60
2018-09-03T12:47:28.135Z,21.70
2018-09-03T12:48:30.994Z,21.70
2018-09-03T12:49:33.128Z,21.70
2018-09-03T12:50:35.276Z,21.70
2018-09-03T12:51:37.406Z,21.70
2018-09-03T12:52:39.541Z,21.80
2018-09-03T12:53:41.691Z,21.90
2018-09-03T12:54:44.180Z,21.90
2018-09-03T12:55:46.318Z,21.90
2018-09-03T12:56:48.446Z,22.00
2018-09-03T12:57:50.584Z,22.00
2018-09-03T12:58:52.746Z,22.00
2018-09-03T13:00:05.134Z,22.00
2018-09-03T13:00:57.152Z,22.00
2018-09-03T13:01:59.289Z,22.10
2018-09-03T13:03:01.475Z,22.10
2018-09-03T13:04:03.777Z,22.10
2018-09-03T13:05:05.948Z,22.20
2018-09-03T13:06:08.093Z,22.20
2018-09-03T13:07:10.231Z,22.20
2018-09-03T13:08:12.394Z,22.20
2018-09-03T13:09:14.561Z,22.20
2018-09-03T13:10:16.740Z,22.20
2018-09-03T13:11:18.902Z,22.40
2018-09-03T13:12:21.049Z,22.30
2018-09-03T13:13:23.351Z,22.30
2018-09-03T13:14:25.554Z,22.30
2018-09-03T13:15:27.692Z,22.30
2018-09-03T13:16:29.905Z,22.30
2018-09-03T13:17:32.094Z,22.30
2018-09-03T13:18:34.244Z,22.30
2018-09-03T13:19:36.455Z,22.30
2018-09-03T13:20:38.853Z,22.30
2018-09-03T13:21:41.225Z,22.40
2018-09-03T13:22:43.465Z,22.40
2018-09-03T13:23:45.617Z,22.40
2018-09-03T13:24:48.021Z,22.40
2018-09-03T13:25:50.451Z,22.40
2018-09-03T13:26:52.761Z,22.40